createdAt,value
2022-10-01T00:03:17.989Z,9.79
2022-10-01T00:07:20.013Z,9.93
2022-10-01T00:11:24.649Z,10.02
2022-10-01T00:15:26.775Z,10.17
2022-10-01T00:19:28.872Z,10.28
2022-10-01T00:23:30.839Z,10.26
2022-10-01T00:27:32.866Z,10.16
2022-10-01T00:31:35.228Z,10.10
2022-10-01T00:35:37.917Z,10.04
2022-10-01T00:39:39.900Z,10.03
2022-10-01T00:43:48.282Z,10.02
2022-10-01T00:47:58.939Z,10.00
2022-10-01T00:52:04.626Z,9.98
2022-10-01T00:56:07.165Z,9.96
2022-10-01T01:00:10.843Z,9.95
2022-10-01T01:04:18.830Z,9.94
2022-10-01T01:08:21.041Z,9.95
2022-10-01T01:12:48.291Z,9.92
2022-10-01T01:17:02.441Z,9.88
2022-10-01T01:21:30.344Z,9.88
2022-10-01T01:25:41.273Z,9.88
2022-10-01T01:29:53.002Z,9.86
2022-10-01T01:33:57.729Z,9.86
2022-10-01T01:38:04.839Z,9.88
2022-10-01T01:42:13.773Z,9.89
2022-10-01T01:46:17.623Z,9.88
2022-10-01T01:50:19.851Z,9.87
2022-10-01T01:54:22.250Z,9.82
2022-10-01T01:58:26.329Z,9.80
2022-10-01T02:02:36.011Z,9.78
2022-10-01T02:07:09.326Z,9.79
2022-10-01T02:11:22.987Z,9.78
2022-10-01T02:15:36.024Z,9.78
2022-10-01T02:19:48.411Z,9.80
2022-10-01T02:24:03.028Z,9.83
2022-10-01T02:28:11.405Z,9.88
2022-10-01T02:32:15.873Z,9.93
2022-10-01T02:36:19.542Z,10.01
2022-10-01T02:40:26.196Z,10.28
2022-10-01T02:44:38.025Z,10.31
2022-10-01T02:48:40.185Z,10.29
2022-10-01T02:52:51.715Z,10.27
2022-10-01T02:57:12.438Z,10.26
2022-10-01T03:01:14.491Z,10.25
2022-10-01T03:05:17.924Z,10.24
2022-10-01T03:09:19.937Z,10.27
2022-10-01T03:13:23.418Z,10.28
2022-10-01T03:17:25.581Z,10.34
2022-10-01T03:21:27.562Z,10.37
2022-10-01T03:25:29.561Z,10.34
2022-10-01T03:29:31.565Z,10.30
2022-10-01T03:33:33.703Z,10.27
2022-10-01T03:37:35.747Z,10.20
2022-10-01T03:41:37.787Z,10.16
2022-10-01T03:45:39.811Z,10.13
2022-10-01T03:49:41.962Z,10.09
2022-10-01T03:53:43.991Z,10.09
2022-10-01T03:57:46.214Z,10.07
2022-10-01T04:01:48.423Z,10.06
2022-10-01T04:05:50.528Z,10.04
2022-10-01T04:09:52.620Z,10.02
2022-10-01T04:13:55.231Z,9.99
2022-10-01T04:17:58.006Z,9.94
2022-10-01T04:22:00.084Z,9.86
2022-10-01T04:26:03.010Z,9.80
2022-10-01T04:30:07.760Z,9.72
2022-10-01T04:34:09.783Z,9.75
2022-10-01T04:38:17.057Z,9.76
2022-10-01T04:42:19.126Z,9.73
2022-10-01T04:46:21.111Z,9.67
2022-10-01T04:50:25.944Z,9.64
2022-10-01T04:54:28.307Z,9.61
2022-10-01T04:58:31.349Z,9.58
2022-10-01T05:02:34.493Z,9.60
2022-10-01T05:06:36.887Z,9.61
2022-10-01T05:10:38.982Z,9.65
2022-10-01T05:14:41.022Z,9.70
2022-10-01T05:18:43.397Z,9.72
2022-10-01T05:22:46.850Z,9.73
2022-10-01T05:26:48.913Z,9.72
2022-10-01T05:30:51.108Z,9.73
2022-10-01T05:34:53.797Z,9.68
2022-10-01T05:38:55.873Z,9.63
2022-10-01T05:42:59.683Z,9.60
2022-10-01T05:47:02.141Z,9.57
2022-10-01T05:51:08.101Z,9.57
2022-10-01T05:55:10.978Z,9.57
2022-10-01T05:59:13.012Z,9.56
2022-10-01T06:03:15.228Z,9.59
2022-10-01T06:07:17.315Z,9.60
2022-10-01T06:11:22.069Z,9.64
2022-10-01T06:15:24.127Z,9.69
2022-10-01T06:19:26.124Z,9.72
2022-10-01T06:23:28.210Z,9.67
2022-10-01T06:27:30.202Z,9.72
2022-10-01T06:31:32.813Z,9.77
2022-10-01T06:35:39.363Z,9.78
2022-10-01T06:39:41.400Z,9.83
2022-10-01T06:43:43.383Z,9.85
2022-10-01T06:47:45.386Z,9.93
2022-10-01T06:52:05.975Z,9.95
2022-10-01T06:56:08.329Z,9.96
2022-10-01T07:00:11.172Z,10.10
2022-10-01T07:04:13.167Z,10.46
2022-10-01T07:08:15.496Z,11.22
2022-10-01T07:12:17.793Z,11.14
2022-10-01T07:16:20.490Z,10.89
2022-10-01T07:20:22.525Z,10.74
2022-10-01T07:24:24.547Z,10.64
2022-10-01T07:28:28.023Z,10.58
2022-10-01T07:32:31.568Z,10.60
2022-10-01T07:36:34.002Z,10.57
2022-10-01T07:40:36.026Z,10.58
2022-10-01T07:44:37.993Z,10.59
2022-10-01T07:48:39.973Z,10.59
2022-10-01T07:52:41.921Z,10.64
2022-10-01T07:56:43.907Z,10.68
2022-10-01T08:00:45.993Z,10.77
2022-10-01T08:05:06.733Z,10.82
2022-10-01T08:09:08.719Z,10.87
2022-10-01T08:13:16.562Z,10.92
2022-10-01T08:17:18.586Z,10.96
2022-10-01T08:21:20.878Z,11.00
2022-10-01T08:25:22.927Z,11.09
2022-10-01T08:29:24.984Z,11.18
2022-10-01T08:33:27.051Z,11.21
2022-10-01T08:37:29.673Z,11.27
2022-10-01T08:41:54.688Z,11.31
2022-10-01T08:46:01.521Z,11.33
2022-10-01T08:50:16.493Z,11.47
2022-10-01T08:54:33.710Z,11.55
2022-10-01T08:58:48.452Z,11.60
2022-10-01T09:02:52.921Z,11.67
2022-10-01T09:07:10.100Z,11.90
2022-10-01T09:11:32.631Z,12.32
2022-10-01T09:15:48.860Z,12.64
2022-10-01T09:20:08.928Z,12.74
2022-10-01T09:24:25.807Z,12.66
2022-10-01T09:28:31.231Z,12.59
2022-10-01T09:32:41.666Z,12.49
2022-10-01T09:37:04.650Z,12.58
2022-10-01T09:41:08.731Z,12.72
2022-10-01T09:45:13.833Z,12.83
2022-10-01T09:49:31.581Z,12.96
2022-10-01T09:53:59.095Z,13.04
2022-10-01T09:58:18.560Z,12.96
2022-10-01T10:02:31.403Z,12.95
2022-10-01T10:06:34.144Z,13.04
2022-10-01T10:10:40.053Z,13.19
2022-10-01T10:14:42.089Z,13.28
2022-10-01T10:18:49.053Z,13.43
2022-10-01T10:22:51.767Z,13.86
2022-10-01T10:26:56.477Z,14.25
2022-10-01T10:30:58.574Z,14.43
2022-10-01T10:35:05.668Z,14.39
2022-10-01T10:39:21.970Z,14.52
2022-10-01T10:43:37.907Z,14.81
2022-10-01T10:47:52.426Z,15.04
2022-10-01T10:51:55.927Z,14.94
2022-10-01T10:56:03.927Z,14.75
2022-10-01T11:00:14.181Z,14.53
2022-10-01T11:04:26.070Z,14.54
2022-10-01T11:08:28.854Z,14.39
2022-10-01T11:12:58.518Z,14.32
2022-10-01T11:17:20.063Z,14.38
2022-10-01T11:21:38.871Z,14.49
2022-10-01T11:25:57.459Z,14.73
2022-10-01T11:30:17.217Z,14.81
2022-10-01T11:34:43.341Z,14.93
2022-10-01T11:38:53.488Z,15.27
2022-10-01T11:43:01.278Z,15.49
2022-10-01T11:47:09.805Z,15.48
2022-10-01T11:51:24.185Z,15.55
2022-10-01T11:55:59.211Z,15.47
2022-10-01T12:00:11.171Z,15.46
2022-10-01T12:04:37.780Z,15.50
2022-10-01T12:08:45.483Z,15.69
2022-10-01T12:12:56.656Z,15.82
2022-10-01T12:17:09.609Z,16.14
2022-10-01T12:21:23.553Z,16.70
2022-10-01T12:25:46.739Z,17.06
2022-10-01T12:29:54.665Z,17.15
2022-10-01T12:34:02.955Z,17.38
2022-10-01T12:38:34.868Z,17.81
2022-10-01T12:43:04.139Z,17.96
2022-10-01T12:47:15.708Z,18.01
2022-10-01T12:51:36.953Z,18.07
2022-10-01T12:56:22.119Z,18.02
2022-10-01T13:00:27.231Z,17.76
2022-10-01T13:04:57.062Z,17.61
2022-10-01T13:09:12.430Z,17.62
2022-10-01T13:13:14.377Z,17.65
2022-10-01T13:17:38.609Z,17.79
2022-10-01T13:22:12.118Z,18.11
2022-10-01T13:26:21.728Z,18.39
2022-10-01T13:30:26.599Z,18.60
2022-10-01T13:34:40.543Z,18.82
2022-10-01T13:38:46.041Z,18.77
2022-10-01T13:42:49.215Z,18.75
2022-10-01T13:46:55.315Z,18.74
2022-10-01T13:51:04.254Z,18.94
2022-10-01T13:55:06.470Z,19.06
2022-10-01T13:59:32.672Z,18.99
2022-10-01T14:04:05.647Z,18.84
2022-10-01T14:08:19.371Z,18.65
2022-10-01T14:12:51.980Z,18.54
2022-10-01T14:16:55.520Z,18.47
2022-10-01T14:21:15.765Z,18.52
2022-10-01T14:25:53.497Z,18.50
2022-10-01T14:30:02.062Z,18.29
2022-10-01T14:34:42.709Z,18.47
2022-10-01T14:38:44.796Z,18.63
2022-10-01T14:43:00.781Z,18.60
2022-10-01T14:47:21.215Z,18.52
2022-10-01T14:51:30.881Z,18.67
2022-10-01T14:55:34.956Z,18.72
2022-10-01T14:59:39.608Z,18.52
2022-10-01T15:03:43.671Z,18.34
2022-10-01T15:07:46.986Z,18.22
2022-10-01T15:11:51.222Z,18.09
2022-10-01T15:15:54.295Z,17.87
2022-10-01T15:19:57.168Z,17.65
2022-10-01T15:23:59.496Z,17.51
2022-10-01T15:28:01.655Z,17.38
2022-10-01T15:32:05.665Z,17.14
2022-10-01T15:36:14.212Z,16.66
2022-10-01T15:40:27.487Z,15.80
2022-10-01T15:44:42.725Z,15.43
2022-10-01T15:48:46.221Z,15.52
2022-10-01T15:52:53.465Z,15.51
2022-10-01T15:56:55.503Z,15.58
2022-10-01T16:01:05.133Z,15.68
2022-10-01T16:05:08.816Z,15.64
2022-10-01T16:09:30.736Z,15.56
2022-10-01T16:13:38.594Z,15.58
2022-10-01T16:17:40.768Z,15.62
2022-10-01T16:21:42.829Z,15.65
2022-10-01T16:25:45.197Z,15.63
2022-10-01T16:29:53.832Z,15.57
2022-10-01T16:33:55.921Z,15.49
2022-10-01T16:37:58.499Z,15.47
2022-10-01T16:42:22.766Z,15.44
2022-10-01T16:46:23.727Z,15.41
2022-10-01T16:50:26.134Z,15.36
2022-10-01T16:54:28.809Z,15.25
2022-10-01T16:58:30.821Z,15.10
2022-10-01T17:02:32.806Z,14.93
2022-10-01T17:06:35.066Z,14.80
2022-10-01T17:10:46.923Z,14.74
2022-10-01T17:14:48.915Z,14.67
2022-10-01T17:18:50.895Z,14.65
2022-10-01T17:22:52.923Z,14.61
2022-10-01T17:26:55.326Z,14.57
2022-10-01T17:30:57.371Z,14.54
2022-10-01T17:34:59.363Z,14.50
2022-10-01T17:39:01.556Z,14.52
2022-10-01T17:43:03.866Z,14.57
2022-10-01T17:47:05.895Z,14.57
2022-10-01T17:51:09.657Z,14.55
2022-10-01T17:55:12.166Z,14.51
2022-10-01T17:59:14.265Z,14.40
2022-10-01T18:03:18.097Z,14.26
2022-10-01T18:07:20.373Z,14.17
2022-10-01T18:11:24.187Z,14.08
2022-10-01T18:15:26.356Z,14.00
2022-10-01T18:19:52.878Z,13.94
2022-10-01T18:23:52.804Z,13.86
2022-10-01T18:27:54.969Z,13.86
2022-10-01T18:32:09.240Z,13.91
2022-10-01T18:36:24.687Z,13.93
2022-10-01T18:40:29.028Z,14.02
2022-10-01T18:44:31.043Z,13.98
2022-10-01T18:48:57.743Z,13.83
2022-10-01T18:53:21.671Z,13.67
2022-10-01T18:57:24.160Z,13.52
2022-10-01T19:01:48.303Z,13.38
2022-10-01T19:06:00.205Z,13.23
2022-10-01T19:10:40.218Z,13.00
2022-10-01T19:15:06.839Z,12.81
2022-10-01T19:19:38.223Z,12.71
2022-10-01T19:24:01.636Z,12.61
2022-10-01T19:28:40.111Z,12.48
2022-10-01T19:33:01.850Z,12.40
2022-10-01T19:37:10.137Z,12.42
2022-10-01T19:41:21.306Z,12.47
2022-10-01T19:45:33.050Z,12.60
2022-10-01T19:49:37.027Z,12.74
2022-10-01T19:53:49.452Z,12.85
2022-10-01T19:57:52.592Z,12.92
2022-10-01T20:02:15.465Z,12.96
2022-10-01T20:06:39.542Z,12.93
2022-10-01T20:10:53.284Z,12.95
2022-10-01T20:15:19.712Z,12.96
2022-10-01T20:19:35.563Z,12.98
2022-10-01T20:24:01.562Z,12.89
2022-10-01T20:28:24.810Z,12.76
2022-10-01T20:33:01.502Z,12.68
2022-10-01T20:37:12.343Z,12.59
2022-10-01T20:41:19.796Z,12.62
2022-10-01T20:45:25.551Z,12.60
2022-10-01T20:49:43.416Z,12.59
2022-10-01T20:53:50.281Z,12.61
2022-10-01T20:58:15.550Z,12.63
2022-10-01T21:02:23.551Z,12.63
2022-10-01T21:06:33.300Z,12.55
2022-10-01T21:10:46.238Z,12.43
2022-10-01T21:14:53.670Z,12.33
2022-10-01T21:19:14.058Z,12.25
2022-10-01T21:23:39.613Z,12.16
2022-10-01T21:28:24.472Z,12.08
2022-10-01T21:32:41.253Z,12.00
2022-10-01T21:37:01.738Z,11.92
2022-10-01T21:41:10.448Z,11.93
2022-10-01T21:45:23.012Z,11.88
2022-10-01T21:49:43.467Z,11.86
2022-10-01T21:54:05.817Z,11.82
2022-10-01T21:58:10.760Z,11.82
2022-10-01T22:02:26.605Z,11.87
2022-10-01T22:06:40.548Z,11.88
2022-10-01T22:10:46.980Z,11.84
2022-10-01T22:14:51.523Z,11.77
2022-10-01T22:18:57.552Z,11.75
2022-10-01T22:23:02.132Z,11.71
2022-10-01T22:27:11.206Z,11.67
2022-10-01T22:31:19.150Z,11.65
2022-10-01T22:35:33.969Z,11.66
2022-10-01T22:39:43.561Z,11.63
2022-10-01T22:43:45.837Z,11.56
2022-10-01T22:48:35.225Z,11.51
2022-10-01T22:53:05.355Z,11.46
2022-10-01T22:57:21.474Z,11.50
2022-10-01T23:01:51.697Z,11.61
2022-10-01T23:06:38.979Z,11.74
2022-10-01T23:11:20.752Z,11.78
2022-10-01T23:15:22.710Z,11.85
2022-10-01T23:19:39.980Z,11.91
2022-10-01T23:23:54.028Z,11.99
2022-10-01T23:28:19.287Z,12.11
2022-10-01T23:32:46.018Z,12.16
2022-10-01T23:37:08.884Z,12.21
2022-10-01T23:41:41.108Z,12.24
2022-10-01T23:45:51.233Z,12.17
2022-10-01T23:49:56.151Z,12.12
2022-10-01T23:54:20.195Z,12.01
2022-10-01T23:58:22.927Z,11.93
